sensor_id;sensor_type;location;lat;lon;timestamp;pressure;altitude;pressure_sealevel;temperature;humidity
38786;BME280;24535;45.508;12.252;2024-01-07T00:02:21;99713.81;;;13.92;64.76
38786;BME280;24535;45.508;12.252;2024-01-07T00:04:52;99713.81;;;13.92;64.83
38786;BME280;24535;45.508;12.252;2024-01-07T00:07:33;99704.38;;;13.90;64.58
38786;BME280;24535;45.508;12.252;2024-01-07T00:10:14;99702.56;;;13.90;64.11
38786;BME280;24535;45.508;12.252;2024-01-07T00:12:40;99711.88;;;13.94;64.06
38786;BME280;24535;45.508;12.252;2024-01-07T00:15:11;99715.47;;;13.93;64.48
38786;BME280;24535;45.508;12.252;2024-01-07T00:20:55;99709.50;;;13.91;64.76
38786;BME280;24535;45.508;12.252;2024-01-07T00:23:21;99705.03;;;13.92;64.14
38786;BME280;24535;45.508;12.252;2024-01-07T00:25:53;99706.56;;;13.94;64.16
38786;BME280;24535;45.508;12.252;2024-01-07T00:28:29;99707.53;;;13.93;64.58
38786;BME280;24535;45.508;12.252;2024-01-07T00:30:54;99713.53;;;13.95;64.78
38786;BME280;24535;45.508;12.252;2024-01-07T00:33:19;99698.91;;;13.91;64.36
38786;BME280;24535;45.508;12.252;2024-01-07T00:35:48;99711.72;;;13.96;64.62
38786;BME280;24535;45.508;12.252;2024-01-07T00:38:16;99704.88;;;13.93;64.72
38786;BME280;24535;45.508;12.252;2024-01-07T00:40:45;99707.94;;;13.98;64.48
38786;BME280;24535;45.508;12.252;2024-01-07T00:46:10;99709.22;;;13.94;64.76
38786;BME280;24535;45.508;12.252;2024-01-07T00:48:35;99712.53;;;13.96;64.23
38786;BME280;24535;45.508;12.252;2024-01-07T00:51:10;99719.34;;;13.99;64.04
38786;BME280;24535;45.508;12.252;2024-01-07T00:53:54;99709.75;;;13.98;64.75
38786;BME280;24535;45.508;12.252;2024-01-07T00:56:30;99719.50;;;13.97;64.20
38786;BME280;24535;45.508;12.252;2024-01-07T00:59:04;99728.13;;;13.99;64.30
38786;BME280;24535;45.508;12.252;2024-01-07T01:01:34;99720.19;;;13.99;64.18
38786;BME280;24535;45.508;12.252;2024-01-07T01:04:10;99722.13;;;13.97;64.39
38786;BME280;24535;45.508;12.252;2024-01-07T01:07:09;99724.66;;;13.99;64.17
38786;BME280;24535;45.508;12.252;2024-01-07T01:16:38;99734.25;;;14.00;64.49
38786;BME280;24535;45.508;12.252;2024-01-07T01:19:06;99735.38;;;13.97;64.49
38786;BME280;24535;45.508;12.252;2024-01-07T01:21:38;99732.06;;;13.95;64.25
38786;BME280;24535;45.508;12.252;2024-01-07T01:24:10;99722.47;;;13.94;64.62
38786;BME280;24535;45.508;12.252;2024-01-07T01:26:36;99727.59;;;13.96;64.20
38786;BME280;24535;45.508;12.252;2024-01-07T01:29:36;99729.25;;;13.97;64.89
38786;BME280;24535;45.508;12.252;2024-01-07T01:32:04;99737.91;;;13.99;64.70
38786;BME280;24535;45.508;12.252;2024-01-07T01:37:33;99725.47;;;13.99;64.10
38786;BME280;24535;45.508;12.252;2024-01-07T01:40:03;99733.72;;;13.96;64.92
38786;BME280;24535;45.508;12.252;2024-01-07T01:42:35;99737.06;;;13.98;64.15
38786;BME280;24535;45.508;12.252;2024-01-07T01:45:06;99724.94;;;13.96;63.92
38786;BME280;24535;45.508;12.252;2024-01-07T01:48:00;99725.78;;;13.96;64.42
38786;BME280;24535;45.508;12.252;2024-01-07T01:50:32;99724.13;;;13.95;64.77
38786;BME280;24535;45.508;12.252;2024-01-07T01:53:00;99718.00;;;13.95;64.76
38786;BME280;24535;45.508;12.252;2024-01-07T01:55:27;99728.28;;;13.98;64.02
38786;BME280;24535;45.508;12.252;2024-01-07T01:57:52;99718.00;;;13.95;64.71
38786;BME280;24535;45.508;12.252;2024-01-07T02:00:26;99725.66;;;13.98;64.10
38786;BME280;24535;45.508;12.252;2024-01-07T02:02:52;99722.84;;;13.99;64.61
38786;BME280;24535;45.508;12.252;2024-01-07T02:05:20;99719.34;;;13.99;63.87
38786;BME280;24535;45.508;12.252;2024-01-07T02:07:53;99727.31;;;13.99;64.34
38786;BME280;24535;45.508;12.252;2024-01-07T02:10:24;99735.91;;;14.01;64.49
38786;BME280;24535;45.508;12.252;2024-01-07T02:12:52;99727.97;;;14.01;64.76
38786;BME280;24535;45.508;12.252;2024-01-07T02:15:48;99729.78;;;14.00;64.25
38786;BME280;24535;45.508;12.252;2024-01-07T02:18:14;99725.31;;;14.01;63.96
38786;BME280;24535;45.508;12.252;2024-01-07T02:20:39;99730.63;;;14.01;64.15
38786;BME280;24535;45.508;12.252;2024-01-07T02:23:05;99723.66;;;14.00;64.00
38786;BME280;24535;45.508;12.252;2024-01-07T02:25:37;99730.63;;;14.01;64.13
38786;BME280;24535;45.508;12.252;2024-01-07T02:28:04;99727.16;;;14.00;64.19
38786;BME280;24535;45.508;12.252;2024-01-07T02:30:35;99731.59;;;14.00;64.51
38786;BME280;24535;45.508;12.252;2024-01-07T02:33:02;99740.25;;;14.02;64.86
38786;BME280;24535;45.508;12.252;2024-01-07T02:35:28;99741.22;;;14.01;64.40
38786;BME280;24535;45.508;12.252;2024-01-07T02:37:56;99726.59;;;13.97;63.99
38786;BME280;24535;45.508;12.252;2024-01-07T02:40:22;99730.94;;;13.98;64.77
38786;BME280;24535;45.508;12.252;2024-01-07T02:42:56;99733.44;;;13.99;64.39
38786;BME280;24535;45.508;12.252;2024-01-07T02:45:37;99730.09;;;13.97;64.12
38786;BME280;24535;45.508;12.252;2024-01-07T02:48:03;99723.81;;;13.98;64.41
38786;BME280;24535;45.508;12.252;2024-01-07T02:50:43;99726.47;;;13.98;63.93
38786;BME280;24535;45.508;12.252;2024-01-07T02:53:08;99719.13;;;13.92;63.82
38786;BME280;24535;45.508;12.252;2024-01-07T02:55:36;99735.81;;;13.93;64.59
38786;BME280;24535;45.508;12.252;2024-01-07T02:58:27;99732.66;;;13.89;64.28
38786;BME280;24535;45.508;12.252;2024-01-07T03:00:53;99740.06;;;13.85;63.69
38786;BME280;24535;45.508;12.252;2024-01-07T03:03:24;99739.81;;;13.79;63.72
38786;BME280;24535;45.508;12.252;2024-01-07T03:05:49;99741.78;;;13.77;63.86
38786;BME280;24535;45.508;12.252;2024-01-07T03:08:17;99728.84;;;13.74;63.91
38786;BME280;24535;45.508;12.252;2024-01-07T03:10:45;99727.16;;;13.73;63.89
38786;BME280;24535;45.508;12.252;2024-01-07T03:13:11;99725.50;;;13.72;63.80
38786;BME280;24535;45.508;12.252;2024-01-07T03:15:37;99727.47;;;13.70;63.66
38786;BME280;24535;45.508;12.252;2024-01-07T03:18:03;99730.13;;;13.70;63.69
38786;BME280;24535;45.508;12.252;2024-01-07T03:20:56;99731.78;;;13.71;63.84
38786;BME280;24535;45.508;12.252;2024-01-07T03:23:22;99734.44;;;13.71;63.82
38786;BME280;24535;45.508;12.252;2024-01-07T03:25:50;99728.31;;;13.70;63.98
38786;BME280;24535;45.508;12.252;2024-01-07T03:28:28;99738.44;;;13.75;63.76
38786;BME280;24535;45.508;12.252;2024-01-07T03:31:15;99729.81;;;13.73;63.65
38786;BME280;24535;45.508;12.252;2024-01-07T03:33:44;99728.31;;;13.70;63.28
38786;BME280;24535;45.508;12.252;2024-01-07T03:39:34;99730.03;;;13.62;63.07
38786;BME280;24535;45.508;12.252;2024-01-07T03:42:15;99729.94;;;13.53;63.23
38786;BME280;24535;45.508;12.252;2024-01-07T03:44:40;99724.78;;;13.52;63.70
38786;BME280;24535;45.508;12.252;2024-01-07T03:47:10;99730.34;;;13.49;63.75
38786;BME280;24535;45.508;12.252;2024-01-07T03:49:47;99734.81;;;13.48;63.37
38786;BME280;24535;45.508;12.252;2024-01-07T03:52:18;99734.53;;;13.51;63.65
38786;BME280;24535;45.508;12.252;2024-01-07T03:55:05;99741.78;;;13.49;63.69
38786;BME280;24535;45.508;12.252;2024-01-07T03:57:37;99723.69;;;13.45;62.88
38786;BME280;24535;45.508;12.252;2024-01-07T04:00:11;99736.09;;;13.44;63.24
38786;BME280;24535;45.508;12.252;2024-01-07T04:02:43;99733.03;;;13.39;63.15
38786;BME280;24535;45.508;12.252;2024-01-07T04:05:24;99734.16;;;13.36;63.30
38786;BME280;24535;45.508;12.252;2024-01-07T04:07:56;99729.03;;;13.35;63.40
38786;BME280;24535;45.508;12.252;2024-01-07T04:10:27;99734.75;;;13.30;63.31
38786;BME280;24535;45.508;12.252;2024-01-07T04:13:02;99740.47;;;13.26;63.71
38786;BME280;24535;45.508;12.252;2024-01-07T04:18:18;99736.03;;;13.17;63.01
38786;BME280;24535;45.508;12.252;2024-01-07T04:20:55;99747.13;;;13.20;63.56
38786;BME280;24535;45.508;12.252;2024-01-07T04:23:23;99744.50;;;13.20;63.70
38786;BME280;24535;45.508;12.252;2024-01-07T04:26:15;99735.59;;;13.21;62.76
38786;BME280;24535;45.508;12.252;2024-01-07T04:28:44;99741.72;;;13.22;63.13
38786;BME280;24535;45.508;12.252;2024-01-07T04:31:32;99751.06;;;13.26;63.30
38786;BME280;24535;45.508;12.252;2024-01-07T04:33:58;99748.00;;;13.21;63.11
38786;BME280;24535;45.508;12.252;2024-01-07T04:36:23;99746.88;;;13.23;63.73
38786;BME280;24535;45.508;12.252;2024-01-07T04:39:00;99743.81;;;13.28;62.83
38786;BME280;24535;45.508;12.252;2024-01-07T04:41:29;99741.97;;;13.28;62.75
38786;BME280;24535;45.508;12.252;2024-01-07T04:44:00;99746.88;;;13.33;63.52
38786;BME280;24535;45.508;12.252;2024-01-07T04:46:38;99738.94;;;13.33;62.70
38786;BME280;24535;45.508;12.252;2024-01-07T04:49:07;99747.25;;;13.38;63.30
38786;BME280;24535;45.508;12.252;2024-01-07T04:51:45;99732.38;;;13.37;62.37
38786;BME280;24535;45.508;12.252;2024-01-07T04:54:20;99733.88;;;13.40;62.13
38786;BME280;24535;45.508;12.252;2024-01-07T04:56:46;99736.09;;;13.44;62.67
38786;BME280;24535;45.508;12.252;2024-01-07T04:59:38;99735.13;;;13.45;62.03
38786;BME280;24535;45.508;12.252;2024-01-07T05:02:09;99732.75;;;13.42;62.72
38786;BME280;24535;45.508;12.252;2024-01-07T05:05:00;99742.34;;;13.43;62.35
38786;BME280;24535;45.508;12.252;2024-01-07T05:10:50;99749.31;;;13.44;62.67
38786;BME280;24535;45.508;12.252;2024-01-07T05:13:22;99733.75;;;13.41;62.52
38786;BME280;24535;45.508;12.252;2024-01-07T05:15:53;99743.72;;;13.47;62.64
38786;BME280;24535;45.508;12.252;2024-01-07T05:18:25;99739.56;;;13.45;62.51
38786;BME280;24535;45.508;12.252;2024-01-07T05:20:51;99748.75;;;13.50;62.96
38786;BME280;24535;45.508;12.252;2024-01-07T05:23:26;99740.25;;;13.47;62.75
38786;BME280;24535;45.508;12.252;2024-01-07T05:25:51;99745.38;;;13.48;62.81
38786;BME280;24535;45.508;12.252;2024-01-07T05:28:29;99738.59;;;13.46;62.25
38786;BME280;24535;45.508;12.252;2024-01-07T05:30:54;99737.91;;;13.44;62.57
38786;BME280;24535;45.508;12.252;2024-01-07T05:33:20;99751.28;;;13.42;62.29
38786;BME280;24535;45.508;12.252;2024-01-07T05:36:05;99747.09;;;13.40;62.94
38786;BME280;24535;45.508;12.252;2024-01-07T05:38:33;99753.22;;;13.40;62.98
38786;BME280;24535;45.508;12.252;2024-01-07T05:40:58;99756.84;;;13.39;62.43
38786;BME280;24535;45.508;12.252;2024-01-07T05:43:30;99760.22;;;13.41;62.30
38786;BME280;24535;45.508;12.252;2024-01-07T05:46:05;99753.22;;;13.40;62.46
38786;BME280;24535;45.508;12.252;2024-01-07T05:48:52;99758.50;;;13.40;62.60
38786;BME280;24535;45.508;12.252;2024-01-07T05:51:20;99758.66;;;13.39;62.45
38786;BME280;24535;45.508;12.252;2024-01-07T05:53:46;99754.66;;;13.34;62.37
38786;BME280;24535;45.508;12.252;2024-01-07T05:56:27;99756.69;;;13.41;61.77
38786;BME280;24535;45.508;12.252;2024-01-07T05:58:53;99761.16;;;13.40;62.47
38786;BME280;24535;45.508;12.252;2024-01-07T06:01:37;99765.34;;;13.43;62.24
38786;BME280;24535;45.508;12.252;2024-01-07T06:04:05;99762.84;;;13.41;62.34
38786;BME280;24535;45.508;12.252;2024-01-07T06:06:53;99773.13;;;13.44;62.22
38786;BME280;24535;45.508;12.252;2024-01-07T06:09:26;99785.50;;;13.44;61.57
38786;BME280;24535;45.508;12.252;2024-01-07T06:12:01;99783.56;;;13.46;62.26
38786;BME280;24535;45.508;12.252;2024-01-07T06:14:27;99782.75;;;13.45;61.72
38786;BME280;24535;45.508;12.252;2024-01-07T06:16:53;99779.94;;;13.47;61.71
38786;BME280;24535;45.508;12.252;2024-01-07T06:19:29;99783.41;;;13.47;61.75
38786;BME280;24535;45.508;12.252;2024-01-07T06:22:02;99786.47;;;13.52;62.13
38786;BME280;24535;45.508;12.252;2024-01-07T06:24:27;99792.44;;;13.54;62.48
38786;BME280;24535;45.508;12.252;2024-01-07T06:26:53;99796.75;;;13.55;62.14
38786;BME280;24535;45.508;12.252;2024-01-07T06:29:24;99804.25;;;13.60;61.68
38786;BME280;24535;45.508;12.252;2024-01-07T06:31:56;99793.66;;;13.60;61.61
38786;BME280;24535;45.508;12.252;2024-01-07T06:34:36;99801.31;;;13.63;62.66
38786;BME280;24535;45.508;12.252;2024-01-07T06:37:26;99800.34;;;13.64;62.24
38786;BME280;24535;45.508;12.252;2024-01-07T06:40:16;99804.38;;;13.68;61.89
38786;BME280;24535;45.508;12.252;2024-01-07T06:42:51;99808.00;;;13.67;62.13
38786;BME280;24535;45.508;12.252;2024-01-07T06:45:19;99811.31;;;13.69;62.20
38786;BME280;24535;45.508;12.252;2024-01-07T06:47:45;99808.81;;;13.68;62.13
38786;BME280;24535;45.508;12.252;2024-01-07T06:50:11;99799.91;;;13.69;61.97
38786;BME280;24535;45.508;12.252;2024-01-07T06:52:36;99811.31;;;13.69;62.42
38786;BME280;24535;45.508;12.252;2024-01-07T06:55:08;99817.47;;;13.70;62.20
38786;BME280;24535;45.508;12.252;2024-01-07T06:57:39;99815.50;;;13.72;62.23
38786;BME280;24535;45.508;12.252;2024-01-07T07:00:08;99822.44;;;13.73;62.13
38786;BME280;24535;45.508;12.252;2024-01-07T07:02:40;99832.75;;;13.76;62.62
38786;BME280;24535;45.508;12.252;2024-01-07T07:05:19;99842.34;;;13.77;62.05
38786;BME280;24535;45.508;12.252;2024-01-07T07:07:54;99844.88;;;13.78;62.47
38786;BME280;24535;45.508;12.252;2024-01-07T07:10:41;99843.06;;;13.79;62.54
38786;BME280;24535;45.508;12.252;2024-01-07T07:13:18;99844.72;;;13.80;62.00
38786;BME280;24535;45.508;12.252;2024-01-07T07:15:44;99853.66;;;13.79;62.28
38786;BME280;24535;45.508;12.252;2024-01-07T07:18:18;99855.31;;;13.80;61.79
38786;BME280;24535;45.508;12.252;2024-01-07T07:20:55;99854.31;;;13.81;62.65
38786;BME280;24535;45.508;12.252;2024-01-07T07:23:20;99863.97;;;13.82;62.24
38786;BME280;24535;45.508;12.252;2024-01-07T07:25:49;99856.97;;;13.81;62.44
38786;BME280;24535;45.508;12.252;2024-01-07T07:28:32;99862.25;;;13.81;62.41
38786;BME280;24535;45.508;12.252;2024-01-07T07:30:57;99867.44;;;13.82;62.29
38786;BME280;24535;45.508;12.252;2024-01-07T07:33:32;99864.63;;;13.84;62.68
38786;BME280;24535;45.508;12.252;2024-01-07T07:39:21;99865.34;;;13.86;62.25
38786;BME280;24535;45.508;12.252;2024-01-07T07:41:56;99870.63;;;13.86;63.20
38786;BME280;24535;45.508;12.252;2024-01-07T07:44:21;99867.97;;;13.86;62.41
38786;BME280;24535;45.508;12.252;2024-01-07T07:46:56;99866.28;;;13.85;62.48
38786;BME280;24535;45.508;12.252;2024-01-07T07:49:24;99865.63;;;13.83;62.51
38786;BME280;24535;45.508;12.252;2024-01-07T07:52:19;99869.81;;;13.85;62.44
38786;BME280;24535;45.508;12.252;2024-01-07T08:01:10;99868.81;;;13.87;62.34
38786;BME280;24535;45.508;12.252;2024-01-07T08:03:38;99875.94;;;13.86;62.57
38786;BME280;24535;45.508;12.252;2024-01-07T08:06:13;99871.75;;;13.83;63.00
38786;BME280;24535;45.508;12.252;2024-01-07T08:34:34;99896.50;;;13.92;62.67
38786;BME280;24535;45.508;12.252;2024-01-07T08:37:25;99901.69;;;13.94;62.58
38786;BME280;24535;45.508;12.252;2024-01-07T09:22:11;99940.13;;;13.98;62.63
38786;BME280;24535;45.508;12.252;2024-01-07T10:19:28;99927.41;;;14.01;62.34
38786;BME280;24535;45.508;12.252;2024-01-07T10:24:38;99936.88;;;14.04;62.81
38786;BME280;24535;45.508;12.252;2024-01-07T10:27:13;99932.44;;;14.04;63.11
38786;BME280;24535;45.508;12.252;2024-01-07T11:51:57;99935.19;;;14.13;63.11
38786;BME280;24535;45.508;12.252;2024-01-07T11:54:25;99927.41;;;14.11;62.74
38786;BME280;24535;45.508;12.252;2024-01-07T11:56:57;99934.19;;;14.14;62.73
38786;BME280;24535;45.508;12.252;2024-01-07T11:59:38;99935.19;;;14.13;63.04
38786;BME280;24535;45.508;12.252;2024-01-07T12:02:07;99931.53;;;14.14;62.87
38786;BME280;24535;45.508;12.252;2024-01-07T12:04:33;99927.41;;;14.11;62.64
38786;BME280;24535;45.508;12.252;2024-01-07T12:07:11;99926.56;;;14.10;62.70
38786;BME280;24535;45.508;12.252;2024-01-07T12:22:43;99938.22;;;14.18;62.74
38786;BME280;24535;45.508;12.252;2024-01-07T12:35:41;99937.38;;;14.17;62.76
38786;BME280;24535;45.508;12.252;2024-01-07T12:38:43;99935.56;;;14.18;63.53
38786;BME280;24535;45.508;12.252;2024-01-07T12:47:12;99937.53;;;14.16;62.89
38786;BME280;24535;45.508;12.252;2024-01-07T13:08:45;99937.94;;;14.21;63.45
38786;BME280;24535;45.508;12.252;2024-01-07T13:11:16;99932.09;;;14.17;63.04
38786;BME280;24535;45.508;12.252;2024-01-07T13:13:57;99927.34;;;14.21;63.36
38786;BME280;24535;45.508;12.252;2024-01-07T13:16:28;99924.97;;;14.18;63.25
38786;BME280;24535;45.508;12.252;2024-01-07T13:18:59;99936.94;;;14.22;63.46
38786;BME280;24535;45.508;12.252;2024-01-07T13:34:20;99937.66;;;14.24;62.96
38786;BME280;24535;45.508;12.252;2024-01-07T13:37:04;99930.69;;;14.23;63.61
38786;BME280;24535;45.508;12.252;2024-01-07T13:42:32;99929.53;;;14.25;63.16
38786;BME280;24535;45.508;12.252;2024-01-07T13:45:25;99941.13;;;14.24;63.22
38786;BME280;24535;45.508;12.252;2024-01-07T13:48:00;99927.22;;;14.22;63.19
38786;BME280;24535;45.508;12.252;2024-01-07T13:50:34;99937.50;;;14.25;63.07
38786;BME280;24535;45.508;12.252;2024-01-07T13:55:49;99941.13;;;14.24;63.21
38786;BME280;24535;45.508;12.252;2024-01-07T13:58:37;99952.72;;;14.23;63.40
38786;BME280;24535;45.508;12.252;2024-01-07T14:01:09;99953.38;;;14.25;63.18
38786;BME280;24535;45.508;12.252;2024-01-07T14:03:35;99956.03;;;14.25;63.40
38786;BME280;24535;45.508;12.252;2024-01-07T14:11:11;99950.91;;;14.24;63.02
38786;BME280;24535;45.508;12.252;2024-01-07T14:13:38;99956.03;;;14.25;63.00
38786;BME280;24535;45.508;12.252;2024-01-07T14:16:04;99958.56;;;14.27;63.34
38786;BME280;24535;45.508;12.252;2024-01-07T14:18:36;99961.22;;;14.27;63.13
38786;BME280;24535;45.508;12.252;2024-01-07T14:21:05;99966.63;;;14.25;63.16
38786;BME280;24535;45.508;12.252;2024-01-07T14:24:07;99974.59;;;14.25;63.46
38786;BME280;24535;45.508;12.252;2024-01-07T14:37:03;100000.69;;;14.20;63.31
38786;BME280;24535;45.508;12.252;2024-01-07T14:39:41;99993.56;;;14.21;63.81
38786;BME280;24535;45.508;12.252;2024-01-07T14:42:15;99994.28;;;14.23;63.56
38786;BME280;24535;45.508;12.252;2024-01-07T14:50:10;100007.81;;;14.20;63.77
38786;BME280;24535;45.508;12.252;2024-01-07T14:52:38;100012.09;;;14.21;63.62
38786;BME280;24535;45.508;12.252;2024-01-07T14:55:04;100016.31;;;14.23;63.34
38786;BME280;24535;45.508;12.252;2024-01-07T14:57:35;100018.13;;;14.23;63.49
38786;BME280;24535;45.508;12.252;2024-01-07T15:00:01;100012.09;;;14.21;63.25
38786;BME280;24535;45.508;12.252;2024-01-07T15:02:26;100015.47;;;14.23;63.57
38786;BME280;24535;45.508;12.252;2024-01-07T15:20:41;100023.41;;;14.23;63.46
38786;BME280;24535;45.508;12.252;2024-01-07T15:32:15;100030.66;;;14.21;63.87
38786;BME280;24535;45.508;12.252;2024-01-07T15:42:26;100035.28;;;14.19;63.64
38786;BME280;24535;45.508;12.252;2024-01-07T15:55:15;100053.66;;;14.20;63.68
38786;BME280;24535;45.508;12.252;2024-01-07T16:04:01;100072.75;;;14.24;63.41
38786;BME280;24535;45.508;12.252;2024-01-07T16:06:44;100070.38;;;14.21;63.46
38786;BME280;24535;45.508;12.252;2024-01-07T16:17:39;100085.31;;;14.22;63.58
38786;BME280;24535;45.508;12.252;2024-01-07T16:20:29;100083.63;;;14.21;64.07
38786;BME280;24535;45.508;12.252;2024-01-07T16:26:16;100082.81;;;14.20;63.97
38786;BME280;24535;45.508;12.252;2024-01-07T16:28:57;100076.81;;;14.18;63.91
38786;BME280;24535;45.508;12.252;2024-01-07T16:41:47;100102.47;;;14.18;63.29
38786;BME280;24535;45.508;12.252;2024-01-07T16:44:26;100100.53;;;14.20;63.60
38786;BME280;24535;45.508;12.252;2024-01-07T16:47:06;100096.06;;;14.20;63.49
38786;BME280;24535;45.508;12.252;2024-01-07T16:54:43;100108.75;;;14.17;63.76
38786;BME280;24535;45.508;12.252;2024-01-07T16:57:17;100113.91;;;14.18;64.12
38786;BME280;24535;45.508;12.252;2024-01-07T17:05:40;100121.88;;;14.18;63.93
38786;BME280;24535;45.508;12.252;2024-01-07T17:08:32;100120.16;;;14.17;63.69
38786;BME280;24535;45.508;12.252;2024-01-07T17:21:18;100138.59;;;14.19;64.20
38786;BME280;24535;45.508;12.252;2024-01-07T17:23:47;100150.00;;;14.19;63.63
38786;BME280;24535;45.508;12.252;2024-01-07T17:34:08;100155.16;;;14.21;63.62
38786;BME280;24535;45.508;12.252;2024-01-07T17:39:32;100161.44;;;14.20;63.38
38786;BME280;24535;45.508;12.252;2024-01-07T17:41:59;100169.25;;;14.21;64.16
38786;BME280;24535;45.508;12.252;2024-01-07T17:45:03;100170.22;;;14.20;63.37
38786;BME280;24535;45.508;12.252;2024-01-07T17:47:35;100170.94;;;14.22;63.46
38786;BME280;24535;45.508;12.252;2024-01-07T17:55:11;100172.03;;;14.20;64.18
38786;BME280;24535;45.508;12.252;2024-01-07T17:57:58;100173.84;;;14.19;63.75
38786;BME280;24535;45.508;12.252;2024-01-07T18:00:30;100185.28;;;14.20;63.65
38786;BME280;24535;45.508;12.252;2024-01-07T18:02:55;100179.00;;;14.21;63.59
38786;BME280;24535;45.508;12.252;2024-01-07T18:05:51;100187.94;;;14.20;63.29
38786;BME280;24535;45.508;12.252;2024-01-07T18:08:32;100192.25;;;14.21;63.57
38786;BME280;24535;45.508;12.252;2024-01-07T18:16:21;100205.38;;;14.22;63.61
38786;BME280;24535;45.508;12.252;2024-01-07T18:18:46;100198.69;;;14.18;63.25
38786;BME280;24535;45.508;12.252;2024-01-07T18:21:15;100204.66;;;14.20;63.73
38786;BME280;24535;45.508;12.252;2024-01-07T18:23:48;100203.13;;;14.18;63.58
38786;BME280;24535;45.508;12.252;2024-01-07T18:26:40;100205.50;;;14.21;63.10
38786;BME280;24535;45.508;12.252;2024-01-07T18:47:18;100232.41;;;14.16;62.90
38786;BME280;24535;45.508;12.252;2024-01-07T19:00:29;100240.22;;;14.18;63.18
38786;BME280;24535;45.508;12.252;2024-01-07T19:06:30;100245.66;;;14.16;62.79
38786;BME280;24535;45.508;12.252;2024-01-07T19:21:53;100260.72;;;14.16;63.01
38786;BME280;24535;45.508;12.252;2024-01-07T19:29:55;100279.81;;;14.19;63.49
38786;BME280;24535;45.508;12.252;2024-01-07T19:32:26;100273.69;;;14.19;62.74
38786;BME280;24535;45.508;12.252;2024-01-07T19:35:02;100281.75;;;14.17;63.09
38786;BME280;24535;45.508;12.252;2024-01-07T19:49:22;100296.81;;;14.17;63.11
38786;BME280;24535;45.508;12.252;2024-01-07T19:51:53;100295.00;;;14.17;63.00
38786;BME280;24535;45.508;12.252;2024-01-07T20:10:16;100325.13;;;14.16;63.02
38786;BME280;24535;45.508;12.252;2024-01-07T20:12:54;100326.94;;;14.16;62.61
38786;BME280;24535;45.508;12.252;2024-01-07T20:18:28;100330.28;;;14.18;61.92
38786;BME280;24535;45.508;12.252;2024-01-07T20:21:30;100322.47;;;14.16;62.78
38786;BME280;24535;45.508;12.252;2024-01-07T20:29:42;100336.13;;;14.12;62.47
38786;BME280;24535;45.508;12.252;2024-01-07T20:32:10;100346.88;;;14.10;62.72
38786;BME280;24535;45.508;12.252;2024-01-07T20:38:04;100360.81;;;14.12;62.83
38786;BME280;24535;45.508;12.252;2024-01-07T20:40:33;100366.94;;;14.13;62.29
38786;BME280;24535;45.508;12.252;2024-01-07T20:43:23;100356.34;;;14.13;62.62
38786;BME280;24535;45.508;12.252;2024-01-07T20:51:13;100371.16;;;14.15;62.71
38786;BME280;24535;45.508;12.252;2024-01-07T20:53:39;100368.91;;;14.10;62.43
38786;BME280;24535;45.508;12.252;2024-01-07T20:58:42;100379.34;;;14.12;62.58
38786;BME280;24535;45.508;12.252;2024-01-07T21:18:33;100392.44;;;14.14;62.67
38786;BME280;24535;45.508;12.252;2024-01-07T21:20:59;100396.06;;;14.13;62.10
38786;BME280;24535;45.508;12.252;2024-01-07T21:23:29;100395.25;;;14.12;62.93
38786;BME280;24535;45.508;12.252;2024-01-07T21:26:22;100400.41;;;14.14;62.44
38786;BME280;24535;45.508;12.252;2024-01-07T21:29:02;100403.03;;;14.14;62.19
38786;BME280;24535;45.508;12.252;2024-01-07T21:31:28;100401.38;;;14.13;62.72
38786;BME280;24535;45.508;12.252;2024-01-07T21:33:57;100405.00;;;14.12;62.85
38786;BME280;24535;45.508;12.252;2024-01-07T21:47:32;100412.22;;;14.09;62.90
38786;BME280;24535;45.508;12.252;2024-01-07T21:49:58;100426.19;;;14.12;62.48
38786;BME280;24535;45.508;12.252;2024-01-07T21:52:39;100421.88;;;14.10;62.43
38786;BME280;24535;45.508;12.252;2024-01-07T22:01:08;100432.19;;;14.14;62.90
38786;BME280;24535;45.508;12.252;2024-01-07T22:03:39;100439.28;;;14.13;62.41
38786;BME280;24535;45.508;12.252;2024-01-07T22:06:08;100436.06;;;14.09;62.45
38786;BME280;24535;45.508;12.252;2024-01-07T22:11:23;100448.22;;;14.12;62.92
38786;BME280;24535;45.508;12.252;2024-01-07T22:13:49;100452.44;;;14.15;62.33
38786;BME280;24535;45.508;12.252;2024-01-07T22:16:21;100447.25;;;14.13;62.70
38786;BME280;24535;45.508;12.252;2024-01-07T22:18:56;100453.25;;;14.15;62.87
38786;BME280;24535;45.508;12.252;2024-01-07T22:21:21;100439.44;;;14.12;62.26
38786;BME280;24535;45.508;12.252;2024-01-07T22:23:53;100454.25;;;14.14;63.07
38786;BME280;24535;45.508;12.252;2024-01-07T22:26:34;100450.72;;;14.14;63.15
38786;BME280;24535;45.508;12.252;2024-01-07T22:29:00;100451.00;;;14.10;62.78
38786;BME280;24535;45.508;12.252;2024-01-07T22:31:28;100458.69;;;14.14;62.89
38786;BME280;24535;45.508;12.252;2024-01-07T22:34:18;100463.13;;;14.13;62.63
38786;BME280;24535;45.508;12.252;2024-01-07T22:36:44;100458.81;;;14.12;62.81
38786;BME280;24535;45.508;12.252;2024-01-07T22:44:42;100457.84;;;14.13;62.77
38786;BME280;24535;45.508;12.252;2024-01-07T22:47:10;100468.31;;;14.15;62.69
38786;BME280;24535;45.508;12.252;2024-01-07T22:49:42;100463.97;;;14.14;62.40
38786;BME280;24535;45.508;12.252;2024-01-07T22:52:13;100471.91;;;14.14;62.37
38786;BME280;24535;45.508;12.252;2024-01-07T22:54:45;100470.25;;;14.13;62.81
38786;BME280;24535;45.508;12.252;2024-01-07T22:57:19;100487.81;;;14.14;62.88
38786;BME280;24535;45.508;12.252;2024-01-07T22:59:51;100476.38;;;14.13;62.61
38786;BME280;24535;45.508;12.252;2024-01-07T23:02:29;100480.84;;;14.13;62.50
38786;BME280;24535;45.508;12.252;2024-01-07T23:05:01;100479.88;;;14.14;62.67